Time;durP1;ratioP1;P1;durP2;ratioP2;P2;SDS_P1;SDS_P2;PMS_P1;PMS_P2;Temp;Humidity;BMP_temperature;BMP_pressure;BME280_temperature;BME280_humidity;BME280_pressure;Samples;Min_cycle;Max_cycle;Signal;HPM_P1;HPM_P2
2023/03/16 00:00:42;;;;;;;15.50;2.17;;;2.20;67.90;;;;;;4126568;28;20121;-85
2023/03/16 00:02:43;;;;;;;12.52;1.95;;;2.20;67.90;;;;;;4143963;28;20030;-85
2023/03/16 00:04:46;;;;;;;11.07;1.70;;;2.10;67.80;;;;;;4141871;28;20038;-85
2023/03/16 00:06:46;;;;;;;12.75;2.13;;;2.10;67.80;;;;;;4138478;28;20030;-84
2023/03/16 00:08:47;;;;;;;13.32;2.45;;;2.00;67.80;;;;;;4135272;28;20040;-84
2023/03/16 00:10:48;;;;;;;25.48;2.47;;;2.00;67.90;;;;;;4133293;28;20030;-85
2023/03/16 00:12:48;;;;;;;22.50;2.10;;;2.00;68.00;;;;;;4136307;28;20088;-84
2023/03/16 00:14:49;;;;;;;13.40;2.17;;;2.00;68.00;;;;;;4138323;28;20220;-84
2023/03/16 00:16:50;;;;;;;13.20;1.80;;;1.90;68.10;;;;;;4126991;28;20034;-85
2023/03/16 00:18:51;;;;;;;8.38;1.40;;;1.90;68.10;;;;;;4126576;28;20117;-86
2023/03/16 00:21:00;;;;;;;11.88;1.58;;;1.90;68.20;;;;;;4139802;28;20054;-84
2023/03/16 00:23:01;;;;;;;9.95;1.45;;;1.90;68.30;;;;;;4125837;28;20656;-84
2023/03/16 00:25:03;;;;;;;17.25;1.92;;;1.80;68.20;;;;;;4142513;28;20057;-85
2023/03/16 00:27:04;;;;;;;14.48;1.60;;;1.80;68.20;;;;;;4143322;28;20033;-84
2023/03/16 00:29:04;;;;;;;12.25;1.50;;;1.80;68.30;;;;;;4110979;28;20097;-84
2023/03/16 00:31:07;;;;;;;12.30;1.52;;;1.70;68.20;;;;;;4143601;28;20034;-84
2023/03/16 00:33:09;;;;;;;10.82;1.60;;;1.70;68.30;;;;;;4121663;28;20018;-85
2023/03/16 00:35:10;;;;;;;13.20;2.03;;;1.70;68.30;;;;;;4144363;28;20068;-84
2023/03/16 00:37:14;;;;;;;14.95;1.75;;;1.70;68.30;;;;;;4124358;28;20078;-85
2023/03/16 00:39:14;;;;;;;9.65;1.52;;;1.60;68.30;;;;;;4144022;28;20876;-84
2023/03/16 00:41:15;;;;;;;14.45;1.50;;;1.60;68.20;;;;;;4132674;28;20034;-85
2023/03/16 00:43:17;;;;;;;13.60;1.67;;;1.60;68.30;;;;;;4131244;28;20561;-85
2023/03/16 00:45:18;;;;;;;13.07;1.25;;;1.50;68.30;;;;;;4131416;28;20046;-85
2023/03/16 00:47:18;;;;;;;12.02;1.42;;;1.50;68.40;;;;;;4145037;28;20872;-84
2023/03/16 00:49:21;;;;;;;10.38;1.65;;;1.50;68.40;;;;;;4133743;28;20065;-85
2023/03/16 00:51:21;;;;;;;7.85;1.13;;;1.50;68.40;;;;;;4127027;28;20027;-84
2023/03/16 00:53:22;;;;;;;12.77;1.77;;;1.40;68.40;;;;;;4118443;28;20127;-85
2023/03/16 00:55:23;;;;;;;11.15;1.55;;;1.40;68.40;;;;;;4142352;28;20058;-84
2023/03/16 00:57:24;;;;;;;14.05;1.70;;;1.40;68.40;;;;;;4127850;28;20105;-85
2023/03/16 00:59:26;;;;;;;16.58;1.38;;;1.40;68.30;;;;;;4144230;28;20080;-85
2023/03/16 01:01:26;;;;;;;11.27;1.80;;;1.30;68.20;;;;;;4140997;28;20042;-86
2023/03/16 01:03:27;;;;;;;8.93;1.52;;;1.30;68.20;;;;;;4142840;28;20838;-85
2023/03/16 01:05:28;;;;;;;17.30;1.98;;;1.30;68.20;;;;;;4143881;28;20117;-85
2023/03/16 01:07:30;;;;;;;8.55;1.85;;;1.20;68.10;;;;;;4140994;28;20034;-85
2023/03/16 01:09:35;;;;;;;14.20;2.40;;;1.20;68.10;;;;;;4128208;28;20034;-85
2023/03/16 01:11:36;;;;;;;7.65;1.38;;;1.20;68.10;;;;;;4142227;28;20030;-84
2023/03/16 01:13:38;;;;;;;9.20;1.83;;;1.10;68.10;;;;;;4127538;28;20037;-84
2023/03/16 01:15:38;;;;;;;8.73;1.40;;;1.10;68.20;;;;;;4125095;28;20042;-85
2023/03/16 01:17:40;;;;;;;14.02;1.98;;;1.10;68.30;;;;;;4144046;28;20036;-85
2023/03/16 01:19:41;;;;;;;11.75;1.70;;;1.00;68.20;;;;;;4142849;28;20064;-85
2023/03/16 01:21:42;;;;;;;12.38;1.65;;;1.00;68.20;;;;;;4127937;28;20030;-85
2023/03/16 01:23:43;;;;;;;16.55;1.88;;;1.00;68.30;;;;;;4134409;28;20041;-86
2023/03/16 01:25:51;;;;;;;9.05;1.52;;;0.90;68.30;;;;;;4125558;28;21621;-85
2023/03/16 01:27:52;;;;;;;10.38;1.75;;;0.90;68.20;;;;;;4121195;28;20113;-84
2023/03/16 01:29:53;;;;;;;10.63;1.85;;;1.00;68.30;;;;;;4113713;28;20025;-84
2023/03/16 01:31:54;;;;;;;12.15;1.45;;;0.80;68.30;;;;;;4124656;28;20105;-85
2023/03/16 01:33:55;;;;;;;7.72;1.50;;;0.80;68.40;;;;;;4123959;28;20057;-85
2023/03/16 01:35:58;;;;;;;9.73;1.30;;;0.80;68.40;;;;;;4114082;28;20086;-85
2023/03/16 01:37:59;;;;;;;12.40;1.48;;;0.80;68.50;;;;;;4130965;28;20491;-84
2023/03/16 01:39:59;;;;;;;10.32;1.35;;;0.80;68.70;;;;;;4122868;28;20503;-86
2023/03/16 01:42:00;;;;;;;10.88;1.75;;;0.70;68.70;;;;;;4114280;28;20033;-85
2023/03/16 01:44:01;;;;;;;11.90;1.40;;;0.70;68.70;;;;;;4127018;28;20061;-86
2023/03/16 01:46:04;;;;;;;8.50;1.30;;;0.70;68.80;;;;;;4144338;28;20033;-85
2023/03/16 01:48:05;;;;;;;8.07;1.23;;;0.70;68.90;;;;;;4145003;28;20030;-85
2023/03/16 01:50:06;;;;;;;8.05;1.17;;;0.70;68.90;;;;;;4137734;28;20030;-85
2023/03/16 01:52:12;;;;;;;13.90;2.00;;;0.70;68.80;;;;;;4125835;28;20026;-85
2023/03/16 01:54:26;;;;;;;10.57;1.55;;;0.60;68.90;;;;;;4134491;28;20025;-85
2023/03/16 01:56:33;;;;;;;12.93;1.50;;;0.60;69.00;;;;;;4138275;28;20030;-85
2023/03/16 01:58:36;;;;;;;16.35;1.88;;;0.60;69.00;;;;;;4123161;28;20031;-86
2023/03/16 02:00:40;;;;;;;16.70;1.17;;;0.50;69.00;;;;;;4126706;28;20574;-85
2023/03/16 02:02:43;;;;;;;10.15;1.70;;;0.60;69.10;;;;;;4124563;28;20104;-85
2023/03/16 02:05:01;;;;;;;8.45;1.17;;;0.50;69.10;;;;;;4138546;28;20033;-85
2023/03/16 02:07:04;;;;;;;7.97;1.15;;;0.50;69.20;;;;;;4128490;28;20064;-86
2023/03/16 02:09:05;;;;;;;13.82;1.33;;;0.50;69.20;;;;;;4128686;28;20590;-86
2023/03/16 02:11:07;;;;;;;7.40;1.15;;;0.50;69.10;;;;;;4144468;28;20030;-85
2023/03/16 02:13:10;;;;;;;7.63;1.60;;;0.40;69.10;;;;;;4125956;28;20022;-85
2023/03/16 02:15:12;;;;;;;10.27;1.52;;;0.40;69.30;;;;;;4123477;28;20058;-86
2023/03/16 02:17:15;;;;;;;5.80;1.45;;;0.40;69.20;;;;;;4128795;28;20026;-86
2023/03/16 02:19:28;;;;;;;10.27;1.30;;;0.40;69.30;;;;;;4142481;28;20100;-85
2023/03/16 02:21:53;;;;;;;6.78;1.17;;;0.40;69.30;;;;;;4142413;28;20061;-84
2023/03/16 02:23:54;;;;;;;17.77;1.73;;;0.30;69.50;;;;;;4127695;28;20105;-85
2023/03/16 02:26:00;;;;;;;12.45;1.50;;;0.30;69.40;;;;;;4143394;28;20026;-85
2023/03/16 02:28:32;;;;;;;9.32;1.20;;;0.30;69.40;;;;;;4128024;28;20034;-86
2023/03/16 02:30:33;;;;;;;11.65;1.48;;;0.30;69.50;;;;;;4142866;28;20026;-85
2023/03/16 02:32:35;;;;;;;9.32;1.50;;;0.30;69.60;;;;;;4140107;28;20040;-85
2023/03/16 02:34:36;;;;;;;8.52;1.20;;;0.20;69.50;;;;;;4142384;28;20041;-86
2023/03/16 02:36:40;;;;;;;10.77;1.52;;;0.20;69.60;;;;;;4128173;28;20033;-84
2023/03/16 02:38:41;;;;;;;13.77;1.83;;;0.20;69.80;;;;;;4144100;28;20025;-86
2023/03/16 02:40:44;;;;;;;9.43;1.73;;;0.20;69.90;;;;;;4142174;28;20026;-85
2023/03/16 02:42:53;;;;;;;15.77;1.80;;;0.20;70.00;;;;;;4143001;28;20036;-86
2023/03/16 02:44:57;;;;;;;12.45;1.58;;;0.20;70.10;;;;;;4145912;28;20038;-86
2023/03/16 02:47:06;;;;;;;12.23;1.15;;;0.20;70.10;;;;;;4142767;28;20495;-88
2023/03/16 02:49:21;;;;;;;9.88;1.17;;;0.20;70.20;;;;;;4141089;28;20384;-85
2023/03/16 02:51:22;;;;;;;20.00;1.45;;;0.20;70.30;;;;;;4113536;28;20095;-85
2023/03/16 02:53:23;;;;;;;16.13;1.52;;;0.20;70.30;;;;;;4130685;28;20027;-85
2023/03/16 02:55:23;;;;;;;8.02;1.60;;;0.20;70.40;;;;;;4127009;28;20086;-86
2023/03/16 02:57:24;;;;;;;7.15;1.63;;;0.20;70.40;;;;;;4143180;28;20026;-86
2023/03/16 02:59:25;;;;;;;10.70;1.52;;;0.20;70.50;;;;;;4140236;28;20018;-86
2023/03/16 03:01:25;;;;;;;12.93;1.52;;;0.20;70.50;;;;;;4123827;28;20042;-85
2023/03/16 03:03:26;;;;;;;15.75;1.40;;;0.20;70.60;;;;;;4128562;28;20022;-85
2023/03/16 03:05:27;;;;;;;9.30;1.52;;;0.20;70.70;;;;;;4125445;28;20018;-85
2023/03/16 03:07:30;;;;;;;9.43;1.10;;;0.20;71.30;;;;;;4112161;28;20070;-87
2023/03/16 03:09:31;;;;;;;10.63;1.05;;;0.20;70.80;;;;;;4111267;28;20043;-85
2023/03/16 03:11:32;;;;;;;8.25;1.35;;;0.20;70.90;;;;;;4128742;28;20031;-84
2023/03/16 03:13:34;;;;;;;10.98;1.33;;;0.20;70.90;;;;;;4112680;28;20599;-85
2023/03/16 03:15:35;;;;;;;15.43;2.17;;;0.20;70.90;;;;;;4140796;28;20040;-85
2023/03/16 03:17:36;;;;;;;9.48;1.67;;;0.20;71.00;;;;;;4110605;28;20042;-84
2023/03/16 03:19:36;;;;;;;8.13;1.70;;;0.20;71.10;;;;;;4141285;28;20014;-85
2023/03/16 03:21:39;;;;;;;13.80;1.55;;;0.20;71.00;;;;;;4145200;28;20097;-84
2023/03/16 03:23:40;;;;;;;13.45;1.77;;;0.20;71.00;;;;;;4128922;28;20583;-86
2023/03/16 03:25:41;;;;;;;10.15;1.70;;;0.20;71.10;;;;;;4139654;28;20041;-85
2023/03/16 03:27:43;;;;;;;9.93;1.60;;;0.40;71.30;;;;;;4125875;28;20033;-84
2023/03/16 03:29:44;;;;;;;12.95;1.73;;;0.30;71.30;;;;;;4140331;28;20048;-86
2023/03/16 03:31:45;;;;;;;10.48;1.90;;;0.20;71.30;;;;;;4123271;28;20026;-85
2023/03/16 03:33:45;;;;;;;19.67;2.38;;;0.30;71.30;;;;;;4105654;28;20042;-84
2023/03/16 03:35:46;;;;;;;13.73;2.28;;;0.30;71.30;;;;;;4136307;28;20121;-85
2023/03/16 03:37:47;;;;;;;11.77;1.48;;;0.30;71.30;;;;;;4137376;28;20030;-85
2023/03/16 03:39:48;;;;;;;16.08;1.55;;;0.30;71.40;;;;;;4143453;28;20026;-85
2023/03/16 03:41:53;;;;;;;8.52;1.40;;;0.30;71.40;;;;;;4143828;28;20034;-85
2023/03/16 03:43:53;;;;;;;13.35;1.90;;;0.30;71.50;;;;;;4144366;28;20038;-85
2023/03/16 03:45:59;;;;;;;9.98;1.40;;;0.30;71.60;;;;;;4125315;28;20026;-85
2023/03/16 03:48:04;;;;;;;14.30;1.88;;;0.30;71.60;;;;;;4111732;28;20153;-85
2023/03/16 03:50:07;;;;;;;10.38;2.13;;;0.30;71.70;;;;;;4116365;28;20021;-85
2023/03/16 03:52:08;;;;;;;15.80;1.83;;;0.30;71.90;;;;;;4143507;28;20048;-85
2023/03/16 03:54:09;;;;;;;11.18;1.70;;;0.30;71.90;;;;;;4124184;28;20026;-85
2023/03/16 03:56:11;;;;;;;12.48;2.33;;;0.30;71.90;;;;;;4141209;28;20826;-85
2023/03/16 03:58:12;;;;;;;12.38;1.73;;;0.40;72.10;;;;;;4141933;28;20030;-85
2023/03/16 04:00:13;;;;;;;18.42;2.10;;;0.40;72.10;;;;;;4127323;28;20035;-85
2023/03/16 04:02:15;;;;;;;12.77;1.60;;;0.40;72.20;;;;;;4124997;28;20090;-87
2023/03/16 04:04:16;;;;;;;14.65;2.10;;;0.40;72.30;;;;;;4126600;28;20034;-84
2023/03/16 04:06:16;;;;;;;11.50;1.50;;;0.40;72.40;;;;;;4112970;28;20099;-85
2023/03/16 04:08:17;;;;;;;17.88;1.88;;;0.50;72.50;;;;;;4111491;28;20054;-86
2023/03/16 04:10:18;;;;;;;15.07;1.90;;;0.50;72.50;;;;;;4126757;28;20037;-87
2023/03/16 04:12:22;;;;;;;12.38;1.67;;;0.50;72.50;;;;;;4114432;28;20022;-87
2023/03/16 04:14:42;;;;;;;11.20;1.67;;;0.50;72.60;;;;;;4130881;28;20038;-85
2023/03/16 04:17:03;;;;;;;15.98;1.98;;;0.50;72.70;;;;;;4146632;28;20066;-85
2023/03/16 04:19:25;;;;;;;16.35;1.67;;;0.50;72.60;;;;;;4143032;28;20089;-86
2023/03/16 04:21:45;;;;;;;15.15;1.83;;;0.60;72.70;;;;;;4145442;28;20046;-84
2023/03/16 04:24:06;;;;;;;12.52;1.50;;;0.60;72.70;;;;;;4132108;28;20137;-85
2023/03/16 04:26:15;;;;;;;15.05;1.63;;;0.60;72.70;;;;;;4144635;28;20068;-84
2023/03/16 04:28:16;;;;;;;8.10;1.48;;;0.60;72.70;;;;;;4115894;28;20937;-85
2023/03/16 04:30:17;;;;;;;11.95;1.30;;;0.60;72.70;;;;;;4131630;28;20030;-84
2023/03/16 04:32:18;;;;;;;11.15;1.70;;;0.70;72.80;;;;;;4141452;28;20135;-85
2023/03/16 04:34:23;;;;;;;8.93;1.40;;;0.70;72.80;;;;;;4128942;28;20075;-85
2023/03/16 04:36:24;;;;;;;15.00;1.52;;;0.60;72.90;;;;;;4145713;28;20081;-84
2023/03/16 04:38:25;;;;;;;12.45;1.92;;;0.70;73.00;;;;;;4141027;28;20022;-84
2023/03/16 04:40:25;;;;;;;9.50;1.70;;;0.70;73.00;;;;;;4129983;28;20054;-85
2023/03/16 04:42:26;;;;;;;11.27;1.40;;;0.70;73.10;;;;;;4129857;28;20178;-85
2023/03/16 04:44:27;;;;;;;9.88;1.65;;;0.70;73.00;;;;;;4125768;28;20058;-84
2023/03/16 04:46:28;;;;;;;7.47;1.35;;;0.70;73.10;;;;;;4145173;28;20018;-84
2023/03/16 04:48:31;;;;;;;14.23;1.80;;;0.70;73.10;;;;;;4126170;28;20023;-85
2023/03/16 04:50:31;;;;;;;8.68;1.60;;;0.70;73.10;;;;;;4128261;28;20836;-84
2023/03/16 04:52:32;;;;;;;18.95;1.80;;;0.70;73.20;;;;;;4148324;28;20245;-85
2023/03/16 04:54:33;;;;;;;14.45;1.58;;;0.80;73.30;;;;;;4145074;28;20041;-84
2023/03/16 04:56:34;;;;;;;13.02;1.90;;;0.70;73.20;;;;;;4141520;28;20077;-84
2023/03/16 04:58:34;;;;;;;13.35;1.30;;;0.80;73.30;;;;;;4127966;28;20034;-84
2023/03/16 05:00:35;;;;;;;8.85;1.48;;;0.80;73.30;;;;;;4142794;28;20087;-85
2023/03/16 05:02:36;;;;;;;11.85;1.58;;;0.80;73.30;;;;;;4142431;28;20041;-84
2023/03/16 05:04:37;;;;;;;10.77;1.77;;;0.80;73.40;;;;;;4143936;28;20056;-84
2023/03/16 05:06:37;;;;;;;11.20;1.58;;;0.80;73.30;;;;;;4128716;28;20022;-85
2023/03/16 05:08:38;;;;;;;12.00;1.73;;;0.80;73.40;;;;;;4142158;28;20061;-85
2023/03/16 05:10:39;;;;;;;14.52;1.80;;;0.80;73.40;;;;;;4144524;28;20033;-84
2023/03/16 05:12:39;;;;;;;6.70;1.25;;;0.80;73.40;;;;;;4112941;28;20038;-82
2023/03/16 05:14:40;;;;;;;11.20;1.70;;;0.80;73.40;;;;;;4123290;28;20034;-84
2023/03/16 05:16:40;;;;;;;12.23;1.70;;;0.80;73.50;;;;;;4123292;28;20040;-84
2023/03/16 05:18:41;;;;;;;8.23;1.52;;;0.80;73.50;;;;;;4126886;28;20030;-84
2023/03/16 05:20:42;;;;;;;9.98;1.58;;;0.80;73.60;;;;;;4140259;28;20084;-84
2023/03/16 05:22:44;;;;;;;11.48;1.60;;;0.80;73.60;;;;;;4109570;28;20027;-84
2023/03/16 05:24:45;;;;;;;16.63;2.90;;;0.90;73.60;;;;;;4143962;28;20045;-83
2023/03/16 05:26:46;;;;;;;15.50;2.58;;;0.90;73.60;;;;;;4140278;28;20033;-84
2023/03/16 05:28:46;;;;;;;10.43;2.28;;;0.80;73.60;;;;;;4139767;28;20022;-84
2023/03/16 05:30:47;;;;;;;17.23;2.13;;;0.80;73.60;;;;;;4142085;28;20033;-84
2023/03/16 05:32:48;;;;;;;12.05;2.72;;;0.90;73.60;;;;;;4126972;28;20026;-85
2023/03/16 05:34:48;;;;;;;16.65;2.78;;;0.90;73.70;;;;;;4129087;28;20038;-84
2023/03/16 05:36:49;;;;;;;14.82;2.92;;;0.90;73.70;;;;;;4100069;28;20038;-84
2023/03/16 05:38:51;;;;;;;11.20;2.75;;;0.90;73.70;;;;;;4125365;28;20080;-84
2023/03/16 05:40:51;;;;;;;19.30;3.22;;;0.90;73.80;;;;;;4125613;28;20034;-85
2023/03/16 05:42:56;;;;;;;11.20;3.15;;;0.90;73.80;;;;;;4139419;28;20120;-85
2023/03/16 05:44:57;;;;;;;13.68;2.42;;;0.90;73.80;;;;;;4119406;28;20031;-83
2023/03/16 05:46:57;;;;;;;15.90;2.95;;;0.90;73.80;;;;;;4125686;28;20034;-86
2023/03/16 05:48:58;;;;;;;13.55;2.80;;;1.00;73.90;;;;;;4126730;28;20026;-84
2023/03/16 05:51:00;;;;;;;22.02;3.28;;;0.90;73.90;;;;;;4120605;28;20042;-84
2023/03/16 05:53:00;;;;;;;16.67;3.40;;;1.00;74.70;;;;;;4108978;28;20039;-85
2023/03/16 05:55:01;;;;;;;12.13;3.42;;;0.90;74.00;;;;;;4124364;28;20186;-84
2023/03/16 05:57:02;;;;;;;18.15;3.55;;;1.00;74.10;;;;;;4125606;28;20462;-84
2023/03/16 05:59:03;;;;;;;19.27;3.00;;;1.00;74.10;;;;;;4121950;28;20038;-83
2023/03/16 06:01:05;;;;;;;18.92;3.65;;;1.00;74.20;;;;;;4125353;28;20057;-85
2023/03/16 06:03:05;;;;;;;11.88;3.22;;;1.00;74.20;;;;;;4125229;28;20718;-85
2023/03/16 06:05:06;;;;;;;15.07;3.33;;;1.10;74.30;;;;;;4137163;28;20061;-84
2023/03/16 06:07:10;;;;;;;12.52;3.17;;;1.00;74.30;;;;;;4106512;28;20053;-84
2023/03/16 06:09:30;;;;;;;18.98;3.42;;;1.10;74.40;;;;;;4123338;28;20045;-84
2023/03/16 06:11:33;;;;;;;19.67;3.50;;;1.10;74.40;;;;;;4121798;28;20503;-88
2023/03/16 06:13:56;;;;;;;13.85;3.22;;;1.20;74.50;;;;;;4137361;28;20045;-83
2023/03/16 06:16:17;;;;;;;12.23;3.38;;;1.10;74.40;;;;;;4118465;28;20121;-84
2023/03/16 06:18:38;;;;;;;17.70;2.50;;;1.20;74.50;;;;;;4123937;28;20034;-85
2023/03/16 06:20:59;;;;;;;17.33;2.80;;;1.20;74.50;;;;;;4136001;28;20037;-85
2023/03/16 06:23:20;;;;;;;11.00;2.58;;;1.20;74.60;;;;;;4136462;28;20049;-84
2023/03/16 06:25:27;;;;;;;14.77;2.65;;;1.20;74.60;;;;;;4123334;28;20034;-85
2023/03/16 06:27:34;;;;;;;7.35;2.40;;;1.30;74.70;;;;;;4109037;28;20522;-86
2023/03/16 06:29:54;;;;;;;14.40;2.25;;;1.30;74.80;;;;;;4131212;28;20034;-84
2023/03/16 06:31:55;;;;;;;17.60;2.92;;;1.30;75.00;;;;;;4139514;28;20026;-83
2023/03/16 06:34:16;;;;;;;12.57;2.97;;;1.40;75.10;;;;;;4139831;28;20033;-84
2023/03/16 06:36:38;;;;;;;15.57;2.75;;;1.40;75.20;;;;;;4134453;28;20050;-83
2023/03/16 06:38:39;;;;;;;14.18;3.10;;;1.50;75.30;;;;;;4136072;28;20040;-84
2023/03/16 06:41:00;;;;;;;12.85;2.00;;;1.60;75.30;;;;;;4137179;28;20029;-84
2023/03/16 06:43:21;;;;;;;12.98;2.25;;;1.60;75.30;;;;;;4136229;28;20042;-83
2023/03/16 06:45:42;;;;;;;12.35;2.45;;;1.70;75.50;;;;;;4138673;28;20041;-84
2023/03/16 06:48:03;;;;;;;6.65;2.10;;;1.70;75.40;;;;;;4136014;28;20101;-83
2023/03/16 06:50:24;;;;;;;15.98;2.10;;;1.70;75.40;;;;;;4141296;28;20029;-86
2023/03/16 06:52:44;;;;;;;16.10;2.30;;;1.80;75.40;;;;;;4139008;28;20065;-84
2023/03/16 06:55:08;;;;;;;7.38;1.98;;;1.90;75.50;;;;;;4144071;28;20030;-83
2023/03/16 06:57:32;;;;;;;12.40;2.13;;;1.90;75.40;;;;;;4118102;28;20042;-84
2023/03/16 06:59:53;;;;;;;;;;;2.00;75.30;;;;;;4130093;28;20045;-83
2023/03/16 07:02:14;;;;;;;12.70;2.60;;;2.00;75.80;;;;;;4131713;28;19987;-84
2023/03/16 07:04:34;;;;;;;8.05;1.55;;;2.10;75.10;;;;;;4141836;28;20040;-83
2023/03/16 07:06:55;;;;;;;13.18;2.78;;;2.20;75.10;;;;;;4139072;28;20041;-84
2023/03/16 07:09:16;;;;;;;16.13;2.10;;;2.20;75.10;;;;;;4129086;28;20036;-84
2023/03/16 07:11:37;;;;;;;19.35;2.45;;;2.30;75.10;;;;;;4137847;28;20242;-83
2023/03/16 07:13:58;;;;;;;18.73;2.92;;;2.30;75.10;;;;;;4133327;28;20046;-83
2023/03/16 07:15:58;;;;;;;16.25;2.40;;;2.40;75.20;;;;;;4122580;28;20039;-83
2023/03/16 07:17:59;;;;;;;11.23;1.98;;;2.40;75.20;;;;;;4137830;28;20419;-83
2023/03/16 07:20:04;;;;;;;13.23;2.45;;;2.50;75.30;;;;;;4138815;28;20042;-84
2023/03/16 07:22:04;;;;;;;12.68;2.33;;;2.50;75.10;;;;;;4138623;28;20049;-83
2023/03/16 07:24:07;;;;;;;21.05;2.65;;;2.60;75.10;;;;;;4139875;28;20036;-83
2023/03/16 07:26:08;;;;;;;10.00;1.92;;;2.60;75.00;;;;;;4136472;28;20018;-83
2023/03/16 07:28:10;;;;;;;12.50;2.17;;;2.60;74.90;;;;;;4136672;28;20022;-83
2023/03/16 07:30:13;;;;;;;10.93;1.75;;;2.70;74.80;;;;;;4127992;28;20026;-84
2023/03/16 07:32:13;;;;;;;17.80;2.65;;;2.80;74.70;;;;;;4121143;28;20113;-83
2023/03/16 07:34:14;;;;;;;15.13;2.33;;;2.80;74.60;;;;;;4122337;28;20031;-83
2023/03/16 07:36:15;;;;;;;11.95;1.90;;;2.90;74.50;;;;;;4124600;28;20034;-84
2023/03/16 07:38:16;;;;;;;9.38;1.50;;;2.90;74.30;;;;;;4134426;28;20068;-85
2023/03/16 07:40:21;;;;;;;17.17;2.17;;;2.90;74.00;;;;;;4136145;28;20120;-83
2023/03/16 07:42:21;;;;;;;15.45;2.05;;;3.00;73.90;;;;;;4121117;28;20038;-83
2023/03/16 07:44:24;;;;;;;9.07;1.90;;;3.00;73.80;;;;;;4109470;28;20035;-84
2023/03/16 07:46:25;;;;;;;;;;;3.00;73.70;;;;;;4122440;28;20038;-83
2023/03/16 07:51:53;;;;;;;16.27;2.63;;;3.10;73.50;;;;;;4129106;28;20133;-83
2023/03/16 07:53:54;;;;;;;14.35;2.20;;;3.20;73.40;;;;;;4145957;28;20045;-83
2023/03/16 07:55:54;;;;;;;11.77;2.38;;;3.20;73.20;;;;;;4145521;28;20044;-84
2023/03/16 07:57:55;;;;;;;13.15;2.50;;;3.20;73.20;;;;;;4143576;28;20034;-84
2023/03/16 07:59:56;;;;;;;13.73;2.55;;;3.30;73.10;;;;;;4143834;28;20122;-83
2023/03/16 08:01:56;;;;;;;10.23;1.85;;;3.40;73.00;;;;;;4141352;28;20049;-83
2023/03/16 08:03:57;;;;;;;19.05;2.55;;;3.30;72.80;;;;;;4128897;28;20034;-83
2023/03/16 08:05:58;;;;;;;9.10;1.73;;;3.40;72.70;;;;;;4125127;28;20117;-82
2023/03/16 08:08:00;;;;;;;10.38;2.28;;;3.40;72.50;;;;;;4122698;28;20088;-83
2023/03/16 08:10:01;;;;;;;10.43;2.40;;;3.50;72.30;;;;;;4140137;28;20125;-83
2023/03/16 08:12:03;;;;;;;7.60;1.83;;;3.50;72.10;;;;;;4119242;28;20018;-84
2023/03/16 08:14:04;;;;;;;12.33;1.97;;;3.50;71.80;;;;;;4126262;28;20081;-83
2023/03/16 08:16:09;;;;;;;16.45;2.60;;;3.60;71.70;;;;;;4147712;28;20038;-84
2023/03/16 08:18:09;;;;;;;12.20;2.65;;;3.60;71.50;;;;;;4140791;28;20068;-83
2023/03/16 08:20:13;;;;;;;13.18;2.78;;;3.70;71.20;;;;;;4110520;28;20031;-84
2023/03/16 08:22:14;;;;;;;13.30;2.38;;;3.70;70.90;;;;;;4112079;28;20247;-83
2023/03/16 08:24:14;;;;;;;13.45;2.65;;;3.70;70.70;;;;;;4111006;28;20125;-83
2023/03/16 08:26:16;;;;;;;7.20;1.92;;;3.70;70.50;;;;;;4128184;28;20014;-83
2023/03/16 08:28:20;;;;;;;8.40;2.10;;;3.80;70.30;;;;;;4111453;28;20367;-83
2023/03/16 08:30:21;;;;;;;12.70;2.10;;;3.80;70.10;;;;;;4122853;28;20062;-83
2023/03/16 08:32:22;;;;;;;11.05;2.05;;;3.90;70.00;;;;;;4129348;28;21485;-84
2023/03/16 08:34:23;;;;;;;9.93;2.20;;;3.90;69.80;;;;;;4111205;28;20031;-83
2023/03/16 08:36:24;;;;;;;12.07;1.90;;;4.00;69.50;;;;;;4143975;28;20108;-83
2023/03/16 08:38:25;;;;;;;10.68;2.25;;;4.00;69.30;;;;;;4125717;28;20044;-85
2023/03/16 08:40:28;;;;;;;11.68;2.28;;;4.00;69.10;;;;;;4139544;28;20037;-83
2023/03/16 08:42:28;;;;;;;9.98;2.17;;;4.10;68.90;;;;;;4136355;28;20029;-83
2023/03/16 08:44:29;;;;;;;11.65;2.38;;;4.10;68.50;;;;;;4141610;28;20041;-84
2023/03/16 08:46:30;;;;;;;11.48;2.30;;;4.20;68.40;;;;;;4138236;28;20034;-84
2023/03/16 08:48:35;;;;;;;11.77;2.15;;;4.30;68.20;;;;;;4109307;28;20113;-84
2023/03/16 08:50:36;;;;;;;10.20;2.22;;;4.30;68.00;;;;;;4112246;28;20238;-83
2023/03/16 08:52:37;;;;;;;8.43;1.95;;;4.40;67.70;;;;;;4140623;28;20603;-83
2023/03/16 08:54:40;;;;;;;12.68;2.10;;;4.30;67.50;;;;;;4137981;28;20054;-83
2023/03/16 08:56:41;;;;;;;9.18;1.88;;;4.40;67.10;;;;;;4126962;28;20081;-83
2023/03/16 08:58:44;;;;;;;11.82;2.35;;;4.50;66.90;;;;;;4128086;28;20116;-83
2023/03/16 09:00:44;;;;;;;10.18;2.05;;;4.50;66.60;;;;;;4136912;28;20093;-84
2023/03/16 09:02:45;;;;;;;8.52;2.40;;;4.60;67.20;;;;;;4139030;28;20121;-83
2023/03/16 09:04:46;;;;;;;8.77;2.00;;;4.60;66.00;;;;;;4139929;28;20030;-83
2023/03/16 09:06:50;;;;;;;6.60;2.00;;;4.70;66.00;;;;;;4127861;28;20038;-81
2023/03/16 09:08:51;;;;;;;10.55;2.08;;;4.70;65.70;;;;;;4135466;28;20060;-82
2023/03/16 09:11:01;;;;;;;13.15;2.63;;;4.80;65.50;;;;;;4111418;28;20753;-82
2023/03/16 09:13:02;;;;;;;10.80;2.13;;;4.80;65.20;;;;;;4129722;28;20030;-83
2023/03/16 09:15:11;;;;;;;8.95;2.35;;;4.90;65.00;;;;;;4127522;28;20181;-82
2023/03/16 09:17:32;;;;;;;12.73;2.25;;;5.00;64.70;;;;;;4128087;28;20033;-82
2023/03/16 09:19:34;;;;;;;14.73;2.20;;;5.00;64.30;;;;;;4129888;28;20026;-82
2023/03/16 09:21:35;;;;;;;8.73;2.10;;;5.10;64.10;;;;;;4122512;28;20038;-83
2023/03/16 09:23:40;;;;;;;8.23;2.30;;;5.10;63.70;;;;;;4132925;28;20257;-82
2023/03/16 09:25:41;;;;;;;8.75;2.10;;;5.20;63.40;;;;;;4142017;28;20023;-85
2023/03/16 09:27:42;;;;;;;9.38;1.50;;;5.20;63.10;;;;;;4125472;28;20063;-82
2023/03/16 09:29:44;;;;;;;10.35;2.38;;;5.30;62.70;;;;;;4122581;28;20066;-83
2023/03/16 09:31:46;;;;;;;8.93;1.63;;;5.30;62.60;;;;;;4141070;28;20109;-82
2023/03/16 09:33:46;;;;;;;9.38;2.33;;;5.40;62.40;;;;;;4140287;28;20029;-81
2023/03/16 09:35:48;;;;;;;5.47;2.30;;;5.40;62.20;;;;;;4141557;28;20088;-83
2023/03/16 09:37:49;;;;;;;13.35;2.08;;;5.40;62.00;;;;;;4120486;28;20042;-85
2023/03/16 09:40:05;;;;;;;11.23;2.28;;;5.40;61.70;;;;;;4130230;28;20511;-82
2023/03/16 09:42:36;;;;;;;6.22;2.03;;;5.50;61.40;;;;;;4142316;28;20113;-83
2023/03/16 09:45:52;;;;;;;6.95;2.05;;;5.60;61.10;;;;;;4141726;28;20042;-84
2023/03/16 09:48:16;;;;;;;7.00;2.05;;;5.60;60.20;;;;;;4077819;29;20111;-83
2023/03/16 09:50:41;;;;;;;9.47;2.10;;;5.70;60.40;;;;;;4066823;29;20040;-84
2023/03/16 09:53:17;;;;;;;11.68;1.83;;;5.80;60.00;;;;;;4079411;29;20043;-83
2023/03/16 09:55:42;;;;;;;7.63;1.98;;;5.80;59.80;;;;;;4078771;29;20346;-83
2023/03/16 09:58:06;;;;;;;12.77;2.25;;;5.90;59.90;;;;;;4078400;29;20658;-82
2023/03/16 10:00:24;;;;;;;5.75;1.98;;;6.00;59.80;;;;;;4064160;29;20032;-83
2023/03/16 10:03:07;;;;;;;8.35;1.95;;;6.00;59.10;;;;;;4081846;29;20027;-83
2023/03/16 10:05:13;;;;;;;5.55;1.73;;;6.10;59.20;;;;;;4035436;29;20676;-83
2023/03/16 10:07:37;;;;;;;7.72;1.83;;;6.20;59.10;;;;;;4047184;29;20073;-84
2023/03/16 10:10:01;;;;;;;9.32;1.67;;;6.20;58.10;;;;;;4046544;29;20037;-83
2023/03/16 10:12:05;;;;;;;6.82;1.55;;;6.30;58.00;;;;;;4032912;29;20065;-83
2023/03/16 10:14:29;;;;;;;7.28;1.77;;;6.30;58.20;;;;;;4031077;29;20040;-84
2023/03/16 10:16:50;;;;;;;9.85;1.67;;;6.40;57.90;;;;;;4031371;29;20144;-83
2023/03/16 10:19:00;;;;;;;8.55;1.95;;;6.50;57.30;;;;;;4054815;29;20851;-82
2023/03/16 10:21:02;;;;;;;8.75;1.65;;;6.60;57.20;;;;;;4047272;29;20037;-83
2023/03/16 10:23:23;;;;;;;5.90;1.38;;;6.60;57.00;;;;;;4060364;29;20116;-83
2023/03/16 10:25:43;;;;;;;12.13;1.65;;;6.70;56.60;;;;;;4030777;29;20037;-83
2023/03/16 10:27:44;;;;;;;5.68;1.58;;;6.80;56.60;;;;;;4051146;29;20082;-83
2023/03/16 10:29:46;;;;;;;6.05;1.33;;;6.80;56.20;;;;;;4058884;29;20515;-82
2023/03/16 10:31:47;;;;;;;4.13;1.58;;;6.90;55.80;;;;;;4053356;29;20535;-82
2023/03/16 10:33:54;;;;;;;4.07;1.30;;;7.00;55.60;;;;;;4058355;29;20167;-82
2023/03/16 10:35:55;;;;;;;11.48;1.70;;;7.00;55.50;;;;;;4088940;28;20104;-82
2023/03/16 10:37:57;;;;;;;8.85;1.55;;;7.10;54.80;;;;;;4137074;28;20032;-83
2023/03/16 10:39:59;;;;;;;8.15;1.50;;;7.20;54.70;;;;;;4137589;28;20026;-83
2023/03/16 10:42:01;;;;;;;10.73;1.70;;;7.20;54.50;;;;;;4136035;28;20435;-83
2023/03/16 10:44:14;;;;;;;4.38;1.30;;;7.30;54.00;;;;;;4134640;28;20048;-84
2023/03/16 10:46:15;;;;;;;8.60;1.67;;;7.40;53.30;;;;;;4098517;28;20762;-83
2023/03/16 10:48:18;;;;;;;4.43;1.50;;;7.40;53.40;;;;;;4137988;28;20040;-82
2023/03/16 10:50:24;;;;;;;9.43;2.47;;;7.60;53.00;;;;;;4122663;28;20298;-82
2023/03/16 10:52:36;;;;;;;9.10;1.98;;;7.50;52.50;;;;;;4126527;28;20019;-83
2023/03/16 10:54:39;;;;;;;6.47;1.73;;;7.60;52.30;;;;;;4139020;28;20069;-81
2023/03/16 10:56:40;;;;;;;9.02;1.35;;;7.60;52.50;;;;;;4123904;28;20034;-82
2023/03/16 10:58:42;;;;;;;4.80;1.70;;;7.70;52.10;;;;;;4103157;28;20058;-83